Time;durP1;ratioP1;P1;durP2;ratioP2;P2;SDS_P1;SDS_P2;PMS_P1;PMS_P2;Temp;Humidity;BMP_temperature;BMP_pressure;BME280_temperature;BME280_humidity;BME280_pressure;Samples;Min_cycle;Max_cycle;Signal;HPM_P1;HPM_P2
2023/03/20 00:02:28;;;;;;;30.80;18.80;;;;;;;3.91;69.35;100499.77;103855;279;39691;-69
2023/03/20 00:05:00;;;;;;;;;;;;;;;3.89;69.53;100497.55;103843;278;38654;-71
2023/03/20 00:07:34;;;;;;;32.00;18.40;;;;;;;3.81;69.66;100495.38;103799;278;39549;-69
2023/03/20 00:10:10;;;;;;;33.30;19.80;;;;;;;3.80;69.79;100493.83;103819;278;39918;-72
2023/03/20 00:12:44;;;;;;;29.20;18.80;;;;;;;3.74;69.84;100491.80;103820;278;40029;-72
2023/03/20 00:15:35;;;;;;;28.80;18.30;;;;;;;3.68;69.86;100492.89;103716;278;175602;-72
2023/03/20 00:18:15;;;;;;;30.50;17.50;;;;;;;3.61;69.99;100492.09;103790;278;39419;-72
2023/03/20 00:20:49;;;;;;;29.00;17.70;;;;;;;3.55;69.99;100495.75;103854;278;38228;-70
2023/03/20 00:23:24;;;;;;;30.10;18.00;;;;;;;3.50;70.03;100493.19;103795;278;38542;-69
2023/03/20 00:25:59;;;;;;;30.40;17.40;;;;;;;3.48;70.28;100493.73;103857;278;38375;-71
2023/03/20 00:28:40;;;;;;;28.30;18.10;;;;;;;3.46;70.28;100491.85;103810;278;38239;-69
2023/03/20 00:31:24;;;;;;;30.20;17.70;;;;;;;3.40;70.46;100490.86;103806;278;38409;-71
2023/03/20 00:33:59;;;;;;;31.40;19.50;;;;;;;3.34;70.62;100491.24;103865;278;38429;-70
2023/03/20 00:36:33;;;;;;;28.90;16.70;;;;;;;3.29;70.79;100490.08;103791;278;39691;-71
2023/03/20 00:39:07;;;;;;;24.50;16.60;;;;;;;3.21;70.77;100484.09;103845;278;39419;-72
2023/03/20 00:41:46;;;;;;;28.90;16.70;;;;;;;3.18;70.83;100481.52;103797;278;40125;-72
2023/03/20 00:44:23;;;;;;;;;;;;;;;3.17;70.99;100480.14;103871;279;39551;-72
2023/03/20 00:46:58;;;;;;;25.40;16.20;;;;;;;3.12;71.24;100482.77;103805;278;38272;-72
2023/03/20 00:49:33;;;;;;;27.00;17.70;;;;;;;3.11;71.35;100479.32;103848;278;39683;-70
2023/03/20 00:52:11;;;;;;;31.40;18.30;;;;;;;3.08;71.37;100478.83;103793;278;39588;-72
2023/03/20 00:54:45;;;;;;;31.90;18.60;;;;;;;3.05;71.50;100477.98;103801;279;38751;-73
2023/03/20 00:57:22;;;;;;;29.90;18.10;;;;;;;3.02;71.52;100471.78;103831;278;39008;-72
2023/03/20 00:59:59;;;;;;;30.30;17.40;;;;;;;3.00;71.66;100473.17;103834;278;38339;-72
2023/03/20 01:02:33;;;;;;;27.70;16.90;;;;;;;2.97;71.85;100473.88;103867;278;38269;-72
2023/03/20 01:05:07;;;;;;;27.10;17.00;;;;;;;2.96;71.85;100474.40;103801;278;38580;-71
2023/03/20 01:07:41;;;;;;;25.90;17.90;;;;;;;2.96;71.92;100473.37;103843;278;38538;-69
2023/03/20 01:10:16;;;;;;;29.20;17.20;;;;;;;2.94;72.03;100471.14;103723;278;188850;-72
2023/03/20 01:12:50;;;;;;;31.50;18.50;;;;;;;2.90;71.96;100469.45;103800;278;40017;-73
2023/03/20 01:15:27;;;;;;;34.00;18.60;;;;;;;2.86;72.02;100465.14;103174;278;917529;-71
2023/03/20 01:18:01;;;;;;;29.20;17.30;;;;;;;2.83;72.11;100466.20;103787;278;38784;-70
2023/03/20 01:20:35;;;;;;;25.60;16.70;;;;;;;2.81;72.08;100462.94;103813;278;38811;-69
2023/03/20 01:23:10;;;;;;;28.10;15.80;;;;;;;2.79;72.25;100459.51;103816;278;38489;-69
2023/03/20 01:25:44;;;;;;;28.70;17.10;;;;;;;2.79;72.26;100464.15;103837;278;39406;-71
2023/03/20 01:28:22;;;;;;;26.20;18.10;;;;;;;2.80;72.41;100466.56;103846;278;39624;-71
2023/03/20 01:30:55;;;;;;;29.10;18.20;;;;;;;2.80;72.60;100463.27;103569;280;175697;-72
2023/03/20 01:33:29;;;;;;;28.10;18.50;;;;;;;2.78;72.49;100460.02;103843;278;38638;-71
2023/03/20 01:36:03;;;;;;;29.50;19.50;;;;;;;2.75;72.49;100457.29;103842;278;38515;-69
2023/03/20 01:38:38;;;;;;;26.70;16.80;;;;;;;2.70;72.63;100458.34;103851;278;39396;-71
2023/03/20 01:41:15;;;;;;;27.20;17.10;;;;;;;2.65;72.79;100456.13;103817;278;39451;-72
2023/03/20 01:43:51;;;;;;;27.90;16.90;;;;;;;2.61;72.85;100453.38;103849;278;38783;-72
2023/03/20 01:46:27;;;;;;;25.20;17.50;;;;;;;2.58;73.02;100455.46;103832;278;38839;-72
2023/03/20 01:49:09;;;;;;;27.10;17.50;;;;;;;2.58;73.28;100451.33;103869;278;38233;-70
2023/03/20 01:51:43;;;;;;;28.00;17.50;;;;;;;2.57;73.33;100444.27;103718;278;172871;-71
2023/03/20 01:54:19;;;;;;;27.10;17.20;;;;;;;2.57;73.41;100441.17;103834;278;38624;-71
2023/03/20 01:56:54;;;;;;;29.20;18.70;;;;;;;2.56;73.65;100440.14;103820;278;38808;-71
2023/03/20 01:59:29;;;;;;;27.30;16.90;;;;;;;2.55;73.63;100439.29;103707;279;38859;-72
2023/03/20 02:02:03;;;;;;;27.60;16.70;;;;;;;2.54;73.79;100435.33;103802;279;38820;-70
2023/03/20 02:04:40;;;;;;;27.80;17.10;;;;;;;2.55;73.88;100435.66;103822;278;39643;-72
2023/03/20 02:07:14;;;;;;;27.50;17.00;;;;;;;2.56;73.94;100441.52;103804;278;38960;-71
2023/03/20 02:09:49;;;;;;;32.30;19.20;;;;;;;2.60;73.90;100444.42;103809;278;38366;-71
2023/03/20 02:12:23;;;;;;;31.00;18.80;;;;;;;2.62;73.83;100444.26;103820;279;40005;-71
2023/03/20 02:14:57;;;;;;;28.50;18.90;;;;;;;2.61;73.73;100441.84;103822;278;38905;-71
2023/03/20 02:17:31;;;;;;;30.40;19.80;;;;;;;2.61;73.75;100439.61;103824;278;38284;-71
2023/03/20 02:20:14;;;;;;;29.40;19.50;;;;;;;2.59;73.71;100441.67;103732;278;172983;-70
2023/03/20 02:23:33;;;;;;;26.60;16.90;;;;;;;2.54;73.53;100441.70;103831;278;38862;-70
2023/03/20 02:26:22;;;;;;;27.40;18.60;;;;;;;2.49;73.60;100445.15;103857;278;38524;-70
2023/03/20 02:29:44;;;;;;;27.90;17.40;;;;;;;2.48;73.78;100442.92;103859;278;38856;-72
2023/03/20 02:33:05;;;;;;;27.50;18.70;;;;;;;2.46;73.69;100443.95;103787;278;38240;-71
2023/03/20 02:36:04;;;;;;;29.80;19.60;;;;;;;2.44;73.85;100438.65;103852;278;38965;-71
2023/03/20 02:39:03;;;;;;;34.70;20.00;;;;;;;2.43;73.76;100438.30;103802;278;40144;-71
2023/03/20 02:41:40;;;;;;;32.40;20.50;;;;;;;2.37;73.91;100434.35;103832;266;38765;-72
2023/03/20 02:44:17;;;;;;;32.60;19.10;;;;;;;2.33;73.96;100435.91;103834;278;38867;-68
2023/03/20 02:46:58;;;;;;;30.20;19.10;;;;;;;2.29;73.98;100434.89;103797;279;40026;-71
2023/03/20 02:49:43;;;;;;;31.10;19.10;;;;;;;2.27;74.02;100431.98;103833;278;39387;-72
2023/03/20 02:52:21;;;;;;;31.90;20.90;;;;;;;2.26;73.96;100431.98;103808;278;39411;-71
2023/03/20 02:55:00;;;;;;;32.80;21.40;;;;;;;2.23;74.09;100432.34;103819;278;38373;-70
2023/03/20 02:57:41;;;;;;;32.60;21.90;;;;;;;2.22;74.20;100431.83;103834;278;39491;-71
2023/03/20 03:00:19;;;;;;;35.40;21.90;;;;;;;2.20;74.33;100432.53;103701;278;175685;-71
2023/03/20 03:02:57;;;;;;;35.20;22.20;;;;;;;2.17;74.28;100432.53;103846;278;40287;-71
2023/03/20 03:05:34;;;;;;;37.20;21.50;;;;;;;2.14;74.34;100430.47;103836;278;39929;-70
2023/03/20 03:08:09;;;;;;;32.50;20.00;;;;;;;2.10;74.40;100426.52;103792;279;38965;-72
2023/03/20 03:10:43;;;;;;;30.40;19.70;;;;;;;2.08;74.52;100426.37;103812;278;38717;-71
2023/03/20 03:13:20;;;;;;;32.20;20.40;;;;;;;2.08;74.51;100424.13;103774;278;38601;-71
2023/03/20 03:15:57;;;;;;;32.20;20.80;;;;;;;2.07;74.61;100422.58;103824;278;38459;-72
2023/03/20 03:18:31;;;;;;;31.30;20.70;;;;;;;2.06;74.68;100424.30;103796;278;40142;-71
2023/03/20 03:21:07;;;;;;;37.20;21.70;;;;;;;2.02;74.69;100422.42;103833;279;39644;-71
2023/03/20 03:23:45;;;;;;;34.10;19.90;;;;;;;1.96;74.73;100425.19;103673;280;38250;-68
2023/03/20 03:26:23;;;;;;;34.60;20.20;;;;;;;1.93;74.72;100423.98;103775;279;39054;-71
2023/03/20 03:28:58;;;;;;;29.60;20.60;;;;;;;1.93;74.85;100424.34;103821;278;39599;-71
2023/03/20 03:31:47;;;;;;;31.50;20.30;;;;;;;1.94;74.69;100420.89;103766;279;38332;-71
2023/03/20 03:34:22;;;;;;;33.70;21.70;;;;;;;1.93;74.74;100419.85;103688;279;39807;-72
2023/03/20 03:37:02;;;;;;;36.50;22.40;;;;;;;1.91;74.70;100419.35;103748;279;38405;-72
2023/03/20 03:39:42;;;;;;;34.40;21.60;;;;;;;1.85;74.82;100417.11;103814;279;39371;-68
2023/03/20 03:42:20;;;;;;;34.90;22.80;;;;;;;1.82;74.91;100417.64;103775;279;40159;-71
2023/03/20 03:44:58;;;;;;;34.10;21.30;;;;;;;1.78;74.98;100413.86;103780;279;39434;-72
2023/03/20 03:47:33;;;;;;;33.50;20.60;;;;;;;1.75;75.06;100411.63;103865;279;39416;-71
2023/03/20 03:50:10;;;;;;;33.10;20.80;;;;;;;1.72;75.13;100409.58;103828;278;38796;-72
2023/03/20 03:52:44;;;;;;;34.80;21.00;;;;;;;1.73;75.28;100409.73;103840;278;38827;-72
2023/03/20 03:55:21;;;;;;;37.80;21.70;;;;;;;1.76;75.37;100412.83;103833;278;38707;-71
2023/03/20 03:57:56;;;;;;;38.50;22.50;;;;;;;1.78;75.27;100412.30;103859;279;39041;-71
2023/03/20 04:00:30;;;;;;;35.70;23.60;;;;;;;1.78;75.20;100409.56;103881;278;38261;-72
2023/03/20 04:03:03;;;;;;;37.60;23.60;;;;;;;1.75;75.25;100409.91;103760;278;38246;-71
2023/03/20 04:05:38;;;;;;;37.40;21.80;;;;;;;1.75;75.18;100406.98;103817;278;38230;-70
2023/03/20 04:08:12;;;;;;;35.60;21.00;;;;;;;1.74;75.34;100405.27;103811;278;38249;-70
2023/03/20 04:10:46;;;;;;;31.60;20.30;;;;;;;1.72;75.37;100401.48;103814;279;38279;-69
2023/03/20 04:13:20;;;;;;;36.80;21.90;;;;;;;1.72;75.50;100402.00;103837;278;38832;-71
2023/03/20 04:15:54;;;;;;;34.80;23.30;;;;;;;1.74;75.52;100402.69;103847;278;38234;-69
2023/03/20 04:18:29;;;;;;;37.00;21.60;;;;;;;1.73;75.39;100404.23;103834;278;38526;-68
2023/03/20 04:21:02;;;;;;;36.30;22.00;;;;;;;1.73;75.40;100404.07;103813;278;39697;-69
2023/03/20 04:23:37;;;;;;;40.90;23.60;;;;;;;1.67;75.24;100408.90;103829;278;39694;-71
2023/03/20 04:26:12;;;;;;;33.60;20.80;;;;;;;1.60;75.34;100408.55;103699;278;175783;-70
2023/03/20 04:28:50;;;;;;;34.80;21.80;;;;;;;1.58;75.45;100409.92;103811;278;38461;-70
2023/03/20 04:31:24;;;;;;;36.20;21.50;;;;;;;1.58;75.54;100409.24;103802;279;38502;-71
2023/03/20 04:33:59;;;;;;;31.10;21.00;;;;;;;1.56;75.60;100411.14;103834;278;38681;-71
2023/03/20 04:36:33;;;;;;;33.80;21.40;;;;;;;1.54;75.66;100408.21;103792;279;38225;-69
2023/03/20 04:39:08;;;;;;;37.50;21.80;;;;;;;1.54;75.81;100409.23;103784;278;38339;-71
2023/03/20 04:41:42;;;;;;;34.40;21.90;;;;;;;1.55;75.84;100406.67;103878;278;38269;-72
2023/03/20 04:44:17;;;;;;;36.20;20.40;;;;;;;1.56;75.99;100407.01;103769;278;38918;-71
2023/03/20 04:46:51;;;;;;;35.10;21.50;;;;;;;1.55;76.12;100412.86;103796;279;38272;-72
2023/03/20 04:49:26;;;;;;;35.90;19.40;;;;;;;1.55;75.96;100413.37;103801;266;38630;-71
2023/03/20 04:52:00;;;;;;;32.50;20.80;;;;;;;1.55;76.29;100415.95;103831;278;38224;-70
2023/03/20 04:54:34;;;;;;;31.60;20.10;;;;;;;1.53;75.96;100415.61;103810;279;38840;-72
2023/03/20 04:57:08;;;;;;;35.00;22.10;;;;;;;1.51;76.20;100419.56;103820;278;38346;-71
2023/03/20 04:59:42;;;;;;;35.00;21.30;;;;;;;1.53;76.40;100415.61;103733;278;175812;-70
2023/03/20 05:02:16;;;;;;;29.60;19.50;;;;;;;1.53;76.36;100415.78;103677;278;38480;-70
2023/03/20 05:04:51;;;;;;;35.50;19.00;;;;;;;1.54;76.50;100415.95;103842;278;39345;-73
2023/03/20 05:07:24;;;;;;;30.90;18.50;;;;;;;1.58;76.68;100415.95;103803;278;38907;-73
2023/03/20 05:09:59;;;;;;;30.20;19.30;;;;;;;1.62;76.66;100419.55;103786;278;38469;-70
2023/03/20 05:12:33;;;;;;;31.00;19.90;;;;;;;1.65;76.74;100422.30;103833;278;38222;-70
2023/03/20 05:15:10;;;;;;;31.40;20.20;;;;;;;1.72;76.99;100422.13;103822;278;38246;-71
2023/03/20 05:17:43;;;;;;;30.10;21.50;;;;;;;1.77;76.97;100422.29;103836;278;39895;-72
2023/03/20 05:20:18;;;;;;;34.80;22.10;;;;;;;1.79;76.85;100424.88;103859;278;38781;-72
2023/03/20 05:22:53;;;;;;;32.90;20.50;;;;;;;1.83;76.97;100422.13;103822;278;38816;-72
2023/03/20 05:25:27;;;;;;;32.20;20.30;;;;;;;1.88;77.02;100422.28;103196;278;916561;-72
2023/03/20 05:28:02;;;;;;;29.70;20.10;;;;;;;1.95;77.19;100423.29;103702;280;38524;-72
2023/03/20 05:30:36;;;;;;;30.40;20.30;;;;;;;2.05;77.31;100424.64;103824;278;38538;-71
2023/03/20 05:33:10;;;;;;;36.10;21.70;;;;;;;2.16;77.37;100423.92;103795;278;39927;-71
2023/03/20 05:35:44;;;;;;;31.70;21.10;;;;;;;2.27;77.45;100422.17;103851;278;38346;-72
2023/03/20 05:38:21;;;;;;;33.80;21.90;;;;;;;2.38;77.40;100421.80;103683;279;38790;-72
2023/03/20 05:40:59;;;;;;;34.80;21.70;;;;;;;2.48;77.48;100421.92;103839;266;38240;-73
2023/03/20 05:43:33;;;;;;;35.00;21.50;;;;;;;2.59;77.51;100419.30;103820;278;38512;-70
2023/03/20 05:46:07;;;;;;;32.50;21.00;;;;;;;2.71;77.66;100417.16;103836;275;38467;-70
2023/03/20 05:48:41;;;;;;;31.90;21.90;;;;;;;2.89;77.78;100421.89;103704;278;175651;-71
2023/03/20 05:51:15;;;;;;;34.80;22.80;;;;;;;3.08;77.74;100424.52;103859;279;39987;-70
2023/03/20 05:53:51;;;;;;;39.00;23.10;;;;;;;3.28;77.73;100419.05;103760;267;39379;-69
2023/03/20 05:56:26;;;;;;;37.90;23.90;;;;;;;3.57;77.90;100420.70;103824;278;38783;-74
2023/03/20 05:59:05;;;;;;;39.10;25.00;;;;;;;3.92;77.82;100419.16;103506;279;535808;-73
2023/03/20 06:01:42;;;;;;;40.40;25.80;;;;;;;4.34;77.87;100414.39;103821;278;39492;-72
2023/03/20 06:04:16;;;;;;;35.80;23.80;;;;;;;4.76;77.68;100414.73;103814;278;39155;-73
2023/03/20 06:06:54;;;;;;;40.20;26.10;;;;;;;5.14;77.09;100415.91;103822;278;39146;-75
2023/03/20 06:09:30;;;;;;;41.20;26.20;;;;;;;5.46;76.49;100411.77;103880;279;38800;-72
2023/03/20 06:12:04;;;;;;;43.30;27.10;;;;;;;5.70;75.66;100409.98;103853;278;38884;-72
2023/03/20 06:14:38;;;;;;;42.20;26.70;;;;;;;5.99;75.38;100407.39;103860;278;39642;-71
2023/03/20 06:17:13;;;;;;;39.60;26.60;;;;;;;6.51;75.90;100409.34;103169;279;912888;-72
2023/03/20 06:19:47;;;;;;;41.10;26.70;;;;;;;7.43;76.82;100406.89;103838;278;38208;-70
2023/03/20 06:22:22;;;;;;;38.80;24.80;;;;;;;8.65;75.17;100401.34;103856;279;39415;-70
2023/03/20 06:24:56;;;;;;;38.50;25.20;;;;;;;9.55;72.18;100402.89;103879;278;38234;-71
2023/03/20 06:27:30;;;;;;;40.80;26.80;;;;;;;10.59;69.28;100403.59;103872;278;38263;-71
2023/03/20 06:30:06;;;;;;;41.50;26.70;;;;;;;11.38;65.46;100401.94;103862;278;38477;-73
2023/03/20 06:32:40;;;;;;;45.50;27.10;;;;;;;11.42;62.20;100408.04;103746;278;175199;-72
2023/03/20 06:35:14;;;;;;;51.00;27.50;;;;;;;11.30;60.14;100411.13;103845;278;38574;-72
2023/03/20 06:37:48;;;;;;;59.30;28.40;;;;;;;11.23;59.44;100413.68;103790;278;38661;-71
2023/03/20 06:40:23;;;;;;;51.30;29.10;;;;;;;11.20;59.12;100422.89;103792;278;38269;-73
2023/03/20 06:42:58;;;;;;;49.30;30.10;;;;;;;11.17;58.56;100424.58;103836;278;39407;-73
2023/03/20 06:45:32;;;;;;;46.90;30.90;;;;;;;11.21;58.07;100424.77;103811;278;38711;-72
2023/03/20 06:48:10;;;;;;;49.40;31.40;;;;;;;11.25;57.39;100427.75;103801;278;38985;-72
2023/03/20 06:50:46;;;;;;;50.40;32.50;;;;;;;11.23;56.94;100428.52;103844;278;38696;-74
2023/03/20 06:53:21;;;;;;;48.80;32.40;;;;;;;11.30;56.67;100426.33;103597;280;40086;-74
2023/03/20 06:55:56;;;;;;;51.80;31.80;;;;;;;11.40;56.23;100426.84;103860;278;38464;-69
2023/03/20 06:58:30;;;;;;;45.20;31.30;;;;;;;11.46;55.97;100426.05;103822;278;39463;-69
2023/03/20 07:01:04;;;;;;;50.50;32.90;;;;;;;11.52;55.38;100431.05;103804;278;38256;-72
2023/03/20 07:03:38;;;;;;;54.30;32.80;;;;;;;11.54;54.83;100429.55;103834;278;38758;-74
2023/03/20 07:06:14;;;;;;;49.60;32.70;;;;;;;11.63;55.05;100428.65;103842;278;38358;-74
2023/03/20 07:08:50;;;;;;;55.50;34.00;;;;;;;11.78;55.18;100428.02;103691;278;38701;-74
2023/03/20 07:11:24;;;;;;;54.30;34.90;;;;;;;12.03;54.76;100421.02;103802;278;39449;-73
2023/03/20 07:14:00;;;;;;;53.30;35.40;;;;;;;12.24;54.20;100424.89;103839;278;38834;-73
2023/03/20 07:16:34;;;;;;;53.70;35.00;;;;;;;12.46;53.45;100423.39;103832;278;39821;-73
2023/03/20 07:19:09;;;;;;;53.40;35.30;;;;;;;12.53;52.78;100420.05;103803;278;38883;-73
2023/03/20 07:21:43;;;;;;;54.80;35.40;;;;;;;12.59;52.19;100424.32;103672;279;38756;-72
2023/03/20 07:24:17;;;;;;;59.80;36.60;;;;;;;12.66;52.05;100424.56;103866;279;38343;-72
2023/03/20 07:26:52;;;;;;;58.30;36.30;;;;;;;12.75;51.67;100427.44;103791;279;38909;-73
2023/03/20 07:29:26;;;;;;;55.20;36.00;;;;;;;12.82;51.36;100423.64;103810;278;38311;-71
2023/03/20 07:32:01;;;;;;;58.20;37.80;;;;;;;12.87;51.42;100423.77;103901;278;39838;-72
2023/03/20 07:34:35;;;;;;;55.90;35.80;;;;;;;13.02;51.41;100427.63;103762;279;38402;-74
2023/03/20 07:37:10;;;;;;;57.70;37.30;;;;;;;13.25;51.03;100425.50;103795;278;38937;-74
2023/03/20 07:39:44;;;;;;;59.70;36.80;;;;;;;13.30;50.12;100425.60;103824;278;38389;-73
2023/03/20 07:42:18;;;;;;;58.90;36.90;;;;;;;13.32;50.35;100422.15;103051;279;918230;-73
2023/03/20 07:44:52;;;;;;;55.10;36.60;;;;;;;13.46;50.21;100424.45;103845;278;38240;-74
2023/03/20 07:47:26;;;;;;;54.80;38.50;;;;;;;13.72;50.00;100421.05;103794;278;38700;-74
2023/03/20 07:50:00;;;;;;;56.90;37.10;;;;;;;14.14;49.96;100422.77;103832;278;38401;-73
2023/03/20 07:52:34;;;;;;;58.40;38.80;;;;;;;14.54;48.71;100417.73;103776;278;38355;-74
2023/03/20 07:55:10;;;;;;;58.30;38.70;;;;;;;14.73;48.07;100420.73;103842;278;38482;-73
2023/03/20 07:57:44;;;;;;;60.80;38.10;;;;;;;14.91;47.66;100423.96;103729;279;188537;-72
2023/03/20 08:00:21;;;;;;;56.40;38.20;;;;;;;15.03;47.45;100422.96;103889;278;38239;-75
2023/03/20 08:02:55;;;;;;;54.70;37.80;;;;;;;15.30;47.38;100420.92;103855;278;38226;-75
2023/03/20 08:05:29;;;;;;;62.80;37.60;;;;;;;15.64;46.60;100418.27;103851;278;38417;-74
2023/03/20 08:08:03;;;;;;;58.00;37.20;;;;;;;15.80;45.81;100414.15;103829;278;38233;-73
2023/03/20 08:10:37;;;;;;;56.30;38.30;;;;;;;16.01;45.41;100414.52;103859;278;38271;-73
2023/03/20 08:13:11;;;;;;;53.00;36.70;;;;;;;16.33;45.66;100407.96;103808;278;39579;-73
2023/03/20 08:15:44;;;;;;;45.80;35.90;;;;;;;17.04;45.33;100407.27;103842;278;38231;-75
2023/03/20 08:18:21;;;;;;;49.10;35.30;;;;;;;17.80;43.67;100402.59;103790;278;38276;-75
2023/03/20 08:20:55;;;;;;;51.50;34.10;;;;;;;18.32;41.68;100403.98;103826;278;38563;-73
2023/03/20 08:23:30;;;;;;;47.40;34.50;;;;;;;18.73;41.21;100406.21;103841;278;38473;-71
2023/03/20 08:26:04;;;;;;;51.00;34.10;;;;;;;19.34;40.37;100408.02;103848;278;38694;-72
2023/03/20 08:28:38;;;;;;;42.30;31.70;;;;;;;20.05;39.37;100400.70;103821;278;39378;-73
2023/03/20 08:31:12;;;;;;;42.60;31.60;;;;;;;20.72;38.04;100399.52;103812;278;38845;-74
2023/03/20 08:33:46;;;;;;;45.80;31.90;;;;;;;21.38;36.78;100397.79;103785;278;39640;-73
2023/03/20 08:36:22;;;;;;;43.20;32.00;;;;;;;21.94;36.03;100397.11;103798;278;38586;-74
2023/03/20 08:38:57;;;;;;;40.00;30.70;;;;;;;22.60;34.99;100402.59;103796;266;38608;-75
2023/03/20 08:41:31;;;;;;;39.70;29.20;;;;;;;23.15;33.43;100405.77;103678;278;39642;-75
2023/03/20 08:44:05;;;;;;;39.00;29.40;;;;;;;23.51;32.45;100402.99;103711;266;41155;-73
2023/03/20 08:46:42;;;;;;;40.70;29.00;;;;;;;23.85;31.72;100401.29;103714;278;39586;-73
2023/03/20 08:49:16;;;;;;;36.20;27.00;;;;;;;24.27;31.21;100393.98;103771;279;39070;-73
2023/03/20 08:51:50;;;;;;;35.90;27.00;;;;;;;24.66;30.70;100396.11;103690;278;174338;-72
2023/03/20 08:54:24;;;;;;;34.60;27.50;;;;;;;25.00;30.43;100395.86;103844;278;38285;-73
2023/03/20 08:56:58;;;;;;;34.60;26.10;;;;;;;25.34;29.13;100392.31;103843;278;38700;-73
2023/03/20 08:59:33;;;;;;;31.20;25.00;;;;;;;25.57;28.99;100392.19;103840;278;38270;-73
2023/03/20 09:02:07;;;;;;;30.40;24.00;;;;;;;25.88;28.41;100390.96;103837;278;38303;-72
2023/03/20 09:04:44;;;;;;;31.30;24.80;;;;;;;26.07;28.10;100390.86;103858;278;39418;-72
2023/03/20 09:07:25;;;;;;;29.30;23.00;;;;;;;26.21;27.20;100395.92;103819;278;38985;-73
2023/03/20 09:09:58;;;;;;;30.50;23.70;;;;;;;26.05;27.08;100393.39;103656;279;38256;-72
2023/03/20 09:12:34;;;;;;;26.20;21.80;;;;;;;26.01;27.16;100393.93;103842;278;38707;-72
2023/03/20 09:15:11;;;;;;;27.00;22.00;;;;;;;26.27;26.75;100391.50;103858;278;39626;-72
2023/03/20 09:17:44;;;;;;;27.50;21.60;;;;;;;26.18;26.45;100389.20;103877;278;38345;-73
2023/03/20 09:20:18;;;;;;;29.90;21.90;;;;;;;26.01;26.88;100387.48;103827;278;38938;-73
2023/03/20 09:22:53;;;;;;;26.40;21.20;;;;;;;25.81;26.55;100384.02;103845;278;38439;-72
2023/03/20 09:25:27;;;;;;;26.60;21.40;;;;;;;25.45;26.69;100387.65;103658;279;38450;-74
2023/03/20 09:28:01;;;;;;;27.30;21.80;;;;;;;25.12;27.05;100380.91;103814;278;38756;-73
2023/03/20 09:30:35;;;;;;;24.70;21.20;;;;;;;25.12;27.33;100382.50;103883;278;40055;-73
2023/03/20 09:33:10;;;;;;;27.20;20.90;;;;;;;25.10;26.89;100378.59;103748;278;38351;-72
2023/03/20 09:35:44;;;;;;;23.80;20.00;;;;;;;24.75;27.11;100377.60;103868;278;39602;-71
2023/03/20 09:38:20;;;;;;;26.70;20.80;;;;;;;24.36;27.12;100379.41;103809;279;38295;-71
2023/03/20 09:40:56;;;;;;;24.80;20.40;;;;;;;24.00;27.67;100380.30;103821;278;38606;-74
2023/03/20 09:43:43;;;;;;;28.20;20.50;;;;;;;23.75;28.05;100380.91;103804;275;38567;-75
2023/03/20 09:46:33;;;;;;;25.40;20.80;;;;;;;23.71;28.18;100387.66;103796;278;38218;-73
2023/03/20 09:49:14;;;;;;;28.10;22.10;;;;;;;23.72;28.63;100389.40;103806;278;39120;-73
2023/03/20 09:51:51;;;;;;;30.50;21.90;;;;;;;23.66;28.46;100390.25;103826;278;39414;-73
2023/03/20 09:54:30;;;;;;;28.60;21.60;;;;;;;23.42;28.31;100387.24;103854;278;38489;-73
2023/03/20 09:57:05;;;;;;;37.30;22.00;;;;;;;23.06;28.84;100385.53;103790;278;39336;-73
2023/03/20 09:59:39;;;;;;;25.90;20.30;;;;;;;22.71;29.17;100387.95;103849;278;38378;-73
2023/03/20 10:02:18;;;;;;;28.70;21.30;;;;;;;22.42;29.35;100385.01;103797;278;38227;-73
2023/03/20 10:04:55;;;;;;;33.00;22.60;;;;;;;22.14;29.89;100386.04;103825;266;39428;-72
2023/03/20 10:07:29;;;;;;;28.00;21.60;;;;;;;22.16;30.70;100386.97;103692;280;39390;-71
2023/03/20 10:10:05;;;;;;;32.20;23.00;;;;;;;22.18;30.83;100386.91;103838;278;39386;-71
2023/03/20 10:12:55;;;;;;;31.90;23.30;;;;;;;22.10;30.72;100387.08;103769;266;38298;-71
2023/03/20 10:15:38;;;;;;;33.00;24.30;;;;;;;21.91;31.27;100387.75;103840;278;38726;-70
2023/03/20 10:18:18;;;;;;;32.80;25.00;;;;;;;21.73;31.40;100385.44;103812;278;38626;-71
2023/03/20 10:20:57;;;;;;;36.30;26.30;;;;;;;21.52;31.70;100388.79;103805;275;39896;-69
2023/03/20 10:23:39;;;;;;;35.30;26.50;;;;;;;21.35;31.86;100387.67;103832;278;39478;-70
2023/03/20 10:26:14;;;;;;;38.40;28.10;;;;;;;21.07;31.84;100386.75;103837;278;39124;-71
2023/03/20 10:28:52;;;;;;;40.10;28.50;;;;;;;20.72;32.52;100388.23;103833;279;38520;-70
2023/03/20 10:31:38;;;;;;;39.80;29.20;;;;;;;20.49;33.15;100387.19;103823;278;38217;-72
2023/03/20 10:34:31;;;;;;;40.10;30.40;;;;;;;20.22;33.45;100387.38;103848;278;38845;-72
2023/03/20 10:37:18;;;;;;;44.40;31.00;;;;;;;19.86;33.96;100383.78;103814;278;38240;-71
2023/03/20 10:39:59;;;;;;;41.50;31.40;;;;;;;19.63;34.75;100388.89;103833;279;38377;-71
2023/03/20 10:42:36;;;;;;;46.40;34.10;;;;;;;19.43;35.40;100389.84;103807;278;39567;-72
2023/03/20 10:45:18;;;;;;;47.10;36.00;;;;;;;19.18;35.90;100389.73;103841;278;38564;-72
2023/03/20 10:47:53;;;;;;;50.80;37.00;;;;;;;18.97;36.52;100391.25;103819;278;39192;-71
2023/03/20 10:50:31;;;;;;;52.20;37.50;;;;;;;18.89;37.18;100391.65;103688;280;38417;-70
2023/03/20 10:53:05;;;;;;;49.30;36.20;;;;;;;18.84;37.38;100387.77;103847;278;38215;-69
2023/03/20 10:55:41;;;;;;;49.40;36.10;;;;;;;18.78;37.95;100385.92;103811;278;38295;-70
2023/03/20 10:58:18;;;;;;;47.60;35.30;;;;;;;18.80;37.86;100380.14;103818;278;39121;-70
2023/03/20 11:00:52;;;;;;;49.70;34.70;;;;;;;18.83;37.62;100379.73;103824;279;38234;-69
2023/03/20 11:03:28;;;;;;;49.30;35.00;;;;;;;18.83;38.05;100376.41;103708;279;174435;-70
2023/03/20 11:06:04;;;;;;;46.50;32.90;;;;;;;18.88;37.97;100371.96;103702;279;38229;-69
2023/03/20 11:08:41;;;;;;;47.90;34.10;;;;;;;18.89;37.71;100370.48;103709;279;38227;-71
2023/03/20 11:11:15;;;;;;;47.80;34.10;;;;;;;18.80;37.97;100369.38;103735;279;38625;-70
2023/03/20 11:13:52;;;;;;;45.30;32.30;;;;;;;18.84;38.51;100364.96;103688;279;38248;-70
2023/03/20 11:16:31;;;;;;;45.10;32.60;;;;;;;18.94;38.61;100363.14;103749;279;38228;-73
2023/03/20 11:19:11;;;;;;;45.50;31.90;;;;;;;19.01;38.38;100357.56;103758;279;39532;-72
2023/03/20 11:21:51;;;;;;;43.20;30.60;;;;;;;19.09;38.38;100352.20;103727;279;39104;-72
2023/03/20 11:24:38;;;;;;;45.10;32.20;;;;;;;19.12;37.56;100348.23;103724;279;38818;-71
2023/03/20 11:27:14;;;;;;;43.70;31.20;;;;;;;19.02;37.39;100349.37;103715;279;38260;-74
2023/03/20 11:29:50;;;;;;;43.10;30.50;;;;;;;18.95;37.82;100348.64;103750;268;39369;-73
2023/03/20 11:32:30;;;;;;;45.10;30.90;;;;;;;18.89;37.69;100345.19;103669;279;38286;-72
2023/03/20 11:35:22;;;;;;;42.20;29.10;;;;;;;18.78;37.75;100342.83;103715;279;39653;-74
2023/03/20 11:38:08;;;;;;;43.20;28.90;;;;;;;18.63;37.76;100341.35;103707;279;38250;-73
2023/03/20 11:40:43;;;;;;;39.00;26.80;;;;;;;18.53;37.99;100339.06;103698;279;38414;-70
2023/03/20 11:43:18;;;;;;;40.30;27.70;;;;;;;18.51;37.82;100338.33;103739;279;39432;-72
2023/03/20 11:45:57;;;;;;;39.80;26.90;;;;;;;18.39;37.82;100336.00;103624;279;174824;-72
2023/03/20 11:48:40;;;;;;;35.80;26.60;;;;;;;18.34;38.11;100337.77;103673;279;38407;-73
2023/03/20 11:51:16;;;;;;;36.20;27.10;;;;;;;18.31;38.01;100336.27;103707;268;38411;-73
2023/03/20 11:54:02;;;;;;;36.90;26.70;;;;;;;18.26;38.23;100335.91;103697;279;38566;-74
2023/03/20 11:56:37;;;;;;;37.50;27.60;;;;;;;18.25;38.35;100331.70;103687;279;39911;-73
2023/03/20 11:59:19;;;;;;;36.60;26.20;;;;;;;18.34;38.83;100332.00;103719;279;38405;-72